sensor_id;sensor_type;location;lat;lon;timestamp;pressure;altitude;pressure_sealevel;temperature;humidity
54936;BME280;40838;50.676;7.838;2023-09-19T00:00:34;97714.50;;;14.64;100.00
54936;BME280;40838;50.676;7.838;2023-09-19T00:03:01;97717.16;;;14.50;100.00
54936;BME280;40838;50.676;7.838;2023-09-19T00:05:34;97716.34;;;14.50;100.00
54936;BME280;40838;50.676;7.838;2023-09-19T00:08:01;97709.03;;;14.42;100.00
54936;BME280;40838;50.676;7.838;2023-09-19T00:10:30;97715.41;;;14.41;100.00
54936;BME280;40838;50.676;7.838;2023-09-19T00:12:58;97717.09;;;14.37;100.00
54936;BME280;40838;50.676;7.838;2023-09-19T00:15:25;97719.03;;;14.31;100.00
54936;BME280;40838;50.676;7.838;2023-09-19T00:17:54;97725.72;;;14.28;100.00
54936;BME280;40838;50.676;7.838;2023-09-19T00:20:21;97731.41;;;14.22;100.00
54936;BME280;40838;50.676;7.838;2023-09-19T00:22:51;97730.91;;;14.20;100.00
54936;BME280;40838;50.676;7.838;2023-09-19T00:25:19;97738.25;;;14.09;100.00
54936;BME280;40838;50.676;7.838;2023-09-19T00:27:46;97733.38;;;13.97;100.00
54936;BME280;40838;50.676;7.838;2023-09-19T00:30:15;97737.50;;;13.84;100.00
54936;BME280;40838;50.676;7.838;2023-09-19T00:32:45;97739.59;;;13.63;100.00
54936;BME280;40838;50.676;7.838;2023-09-19T00:35:13;97743.81;;;13.70;100.00
54936;BME280;40838;50.676;7.838;2023-09-19T00:37:40;97746.59;;;13.59;100.00
54936;BME280;40838;50.676;7.838;2023-09-19T00:40:09;97745.72;;;13.40;100.00
54936;BME280;40838;50.676;7.838;2023-09-19T00:42:38;97743.28;;;13.43;100.00
54936;BME280;40838;50.676;7.838;2023-09-19T00:45:06;97753.66;;;13.45;100.00
54936;BME280;40838;50.676;7.838;2023-09-19T00:47:35;97741.50;;;13.39;100.00
54936;BME280;40838;50.676;7.838;2023-09-19T00:50:03;97747.88;;;13.38;100.00
54936;BME280;40838;50.676;7.838;2023-09-19T00:52:33;97743.63;;;13.37;100.00
54936;BME280;40838;50.676;7.838;2023-09-19T00:55:02;97756.41;;;13.35;100.00
54936;BME280;40838;50.676;7.838;2023-09-19T00:57:31;97760.75;;;13.26;100.00
54936;BME280;40838;50.676;7.838;2023-09-19T00:59:59;97753.53;;;13.07;100.00
54936;BME280;40838;50.676;7.838;2023-09-19T01:02:30;97758.31;;;13.05;100.00
54936;BME280;40838;50.676;7.838;2023-09-19T01:04:57;97749.88;;;12.98;100.00
54936;BME280;40838;50.676;7.838;2023-09-19T01:07:24;97754.72;;;12.91;100.00
54936;BME280;40838;50.676;7.838;2023-09-19T01:09:51;97752.63;;;12.88;100.00
54936;BME280;40838;50.676;7.838;2023-09-19T01:12:24;97756.13;;;12.83;100.00
54936;BME280;40838;50.676;7.838;2023-09-19T01:14:59;97757.16;;;12.87;100.00
54936;BME280;40838;50.676;7.838;2023-09-19T01:17:32;97761.19;;;12.80;100.00
54936;BME280;40838;50.676;7.838;2023-09-19T01:20:27;97762.09;;;12.65;100.00
54936;BME280;40838;50.676;7.838;2023-09-19T01:23:10;97764.59;;;12.51;100.00
54936;BME280;40838;50.676;7.838;2023-09-19T01:26:07;97763.56;;;12.42;100.00
54936;BME280;40838;50.676;7.838;2023-09-19T01:28:54;97765.31;;;12.22;100.00
54936;BME280;40838;50.676;7.838;2023-09-19T01:31:29;97764.84;;;12.10;100.00
54936;BME280;40838;50.676;7.838;2023-09-19T01:34:00;97767.22;;;12.12;100.00
54936;BME280;40838;50.676;7.838;2023-09-19T01:36:31;97772.84;;;12.05;100.00
54936;BME280;40838;50.676;7.838;2023-09-19T01:39:00;97774.94;;;12.03;100.00
54936;BME280;40838;50.676;7.838;2023-09-19T01:41:45;97782.06;;;12.13;100.00
54936;BME280;40838;50.676;7.838;2023-09-19T01:44:19;97775.94;;;12.17;100.00
54936;BME280;40838;50.676;7.838;2023-09-19T01:46:50;97780.66;;;12.31;100.00
54936;BME280;40838;50.676;7.838;2023-09-19T01:49:25;97778.28;;;12.24;100.00
54936;BME280;40838;50.676;7.838;2023-09-19T01:52:02;97781.16;;;12.33;100.00
54936;BME280;40838;50.676;7.838;2023-09-19T01:54:34;97778.25;;;12.29;100.00
54936;BME280;40838;50.676;7.838;2023-09-19T01:57:09;97793.06;;;12.40;100.00
54936;BME280;40838;50.676;7.838;2023-09-19T01:59:41;97785.09;;;12.40;100.00
54936;BME280;40838;50.676;7.838;2023-09-19T02:02:12;97791.19;;;12.41;100.00
54936;BME280;40838;50.676;7.838;2023-09-19T02:04:40;97799.91;;;12.46;100.00
54936;BME280;40838;50.676;7.838;2023-09-19T02:07:07;97794.13;;;12.39;100.00
54936;BME280;40838;50.676;7.838;2023-09-19T02:09:34;97799.59;;;12.58;100.00
54936;BME280;40838;50.676;7.838;2023-09-19T02:12:04;97797.34;;;12.76;100.00
54936;BME280;40838;50.676;7.838;2023-09-19T02:14:31;97799.75;;;12.77;100.00
54936;BME280;40838;50.676;7.838;2023-09-19T02:16:58;97809.88;;;12.70;100.00
54936;BME280;40838;50.676;7.838;2023-09-19T02:19:26;97813.88;;;12.67;100.00
54936;BME280;40838;50.676;7.838;2023-09-19T02:21:53;97810.00;;;12.89;100.00
54936;BME280;40838;50.676;7.838;2023-09-19T02:24:21;97806.31;;;12.85;100.00
54936;BME280;40838;50.676;7.838;2023-09-19T02:26:52;97815.06;;;12.85;100.00
54936;BME280;40838;50.676;7.838;2023-09-19T02:29:20;97815.31;;;12.89;100.00
54936;BME280;40838;50.676;7.838;2023-09-19T02:31:47;97821.34;;;12.94;100.00
54936;BME280;40838;50.676;7.838;2023-09-19T02:34:14;97818.66;;;13.00;100.00
54936;BME280;40838;50.676;7.838;2023-09-19T02:36:44;97823.72;;;13.01;100.00
54936;BME280;40838;50.676;7.838;2023-09-19T02:39:11;97824.28;;;12.98;100.00
54936;BME280;40838;50.676;7.838;2023-09-19T02:41:38;97828.47;;;13.04;100.00
54936;BME280;40838;50.676;7.838;2023-09-19T02:44:07;97832.06;;;13.18;100.00
54936;BME280;40838;50.676;7.838;2023-09-19T02:46:34;97831.81;;;13.15;100.00
54936;BME280;40838;50.676;7.838;2023-09-19T02:49:02;97824.47;;;13.07;100.00
54936;BME280;40838;50.676;7.838;2023-09-19T02:51:30;97838.22;;;13.14;100.00
54936;BME280;40838;50.676;7.838;2023-09-19T02:53:59;97841.91;;;12.84;100.00
54936;BME280;40838;50.676;7.838;2023-09-19T02:56:28;97845.19;;;12.70;100.00
54936;BME280;40838;50.676;7.838;2023-09-19T02:58:56;97838.91;;;12.95;100.00
54936;BME280;40838;50.676;7.838;2023-09-19T03:01:23;97845.78;;;12.96;100.00
54936;BME280;40838;50.676;7.838;2023-09-19T03:03:50;97844.22;;;12.95;100.00
54936;BME280;40838;50.676;7.838;2023-09-19T03:06:16;97842.19;;;13.16;100.00
54936;BME280;40838;50.676;7.838;2023-09-19T03:08:47;97849.75;;;12.99;100.00
54936;BME280;40838;50.676;7.838;2023-09-19T03:11:16;97850.22;;;12.72;100.00
54936;BME280;40838;50.676;7.838;2023-09-19T03:13:51;97851.03;;;12.67;100.00
54936;BME280;40838;50.676;7.838;2023-09-19T03:16:18;97848.00;;;12.84;100.00
54936;BME280;40838;50.676;7.838;2023-09-19T03:18:47;97853.31;;;12.84;100.00
54936;BME280;40838;50.676;7.838;2023-09-19T03:21:15;97854.28;;;12.59;100.00
54936;BME280;40838;50.676;7.838;2023-09-19T03:23:42;97858.31;;;12.51;100.00
54936;BME280;40838;50.676;7.838;2023-09-19T03:26:11;97850.03;;;12.63;100.00
54936;BME280;40838;50.676;7.838;2023-09-19T03:28:41;97856.19;;;12.48;100.00
54936;BME280;40838;50.676;7.838;2023-09-19T03:31:09;97860.69;;;12.53;100.00
54936;BME280;40838;50.676;7.838;2023-09-19T03:33:36;97853.50;;;12.54;100.00
54936;BME280;40838;50.676;7.838;2023-09-19T03:36:04;97859.09;;;12.52;100.00
54936;BME280;40838;50.676;7.838;2023-09-19T03:38:31;97861.47;;;12.54;100.00
54936;BME280;40838;50.676;7.838;2023-09-19T03:40:58;97865.97;;;12.58;100.00
54936;BME280;40838;50.676;7.838;2023-09-19T03:43:25;97863.09;;;12.44;100.00
54936;BME280;40838;50.676;7.838;2023-09-19T03:45:54;97867.38;;;12.35;100.00
54936;BME280;40838;50.676;7.838;2023-09-19T03:48:22;97856.56;;;12.26;100.00
54936;BME280;40838;50.676;7.838;2023-09-19T03:50:50;97873.09;;;11.98;100.00
54936;BME280;40838;50.676;7.838;2023-09-19T03:53:18;97861.63;;;12.23;100.00
54936;BME280;40838;50.676;7.838;2023-09-19T03:55:45;97867.44;;;12.25;100.00
54936;BME280;40838;50.676;7.838;2023-09-19T03:58:12;97871.19;;;12.19;100.00
54936;BME280;40838;50.676;7.838;2023-09-19T04:00:39;97866.13;;;12.22;100.00
54936;BME280;40838;50.676;7.838;2023-09-19T04:03:07;97866.13;;;12.22;100.00
54936;BME280;40838;50.676;7.838;2023-09-19T04:05:36;97872.22;;;12.23;100.00
54936;BME280;40838;50.676;7.838;2023-09-19T04:08:03;97880.72;;;12.25;100.00
54936;BME280;40838;50.676;7.838;2023-09-19T04:10:30;97875.69;;;12.18;100.00
54936;BME280;40838;50.676;7.838;2023-09-19T04:12:57;97875.75;;;12.03;100.00
54936;BME280;40838;50.676;7.838;2023-09-19T04:15:24;97888.78;;;11.94;100.00
54936;BME280;40838;50.676;7.838;2023-09-19T04:17:53;97886.91;;;11.95;100.00
54936;BME280;40838;50.676;7.838;2023-09-19T04:20:21;97897.03;;;11.82;100.00
54936;BME280;40838;50.676;7.838;2023-09-19T04:22:49;97890.69;;;11.73;100.00
54936;BME280;40838;50.676;7.838;2023-09-19T04:25:16;97890.69;;;11.73;100.00
54936;BME280;40838;50.676;7.838;2023-09-19T04:27:44;97889.63;;;11.74;100.00
54936;BME280;40838;50.676;7.838;2023-09-19T04:30:11;97890.44;;;11.65;100.00
54936;BME280;40838;50.676;7.838;2023-09-19T04:32:40;97886.47;;;11.72;100.00
54936;BME280;40838;50.676;7.838;2023-09-19T04:35:08;97887.25;;;11.78;100.00
54936;BME280;40838;50.676;7.838;2023-09-19T04:37:38;97893.09;;;11.65;100.00
54936;BME280;40838;50.676;7.838;2023-09-19T04:40:07;97893.34;;;11.73;100.00
54936;BME280;40838;50.676;7.838;2023-09-19T04:42:40;97892.34;;;11.28;100.00
54936;BME280;40838;50.676;7.838;2023-09-19T04:45:07;97896.53;;;11.60;100.00
54936;BME280;40838;50.676;7.838;2023-09-19T04:47:36;97892.84;;;11.51;100.00
54936;BME280;40838;50.676;7.838;2023-09-19T04:50:09;97899.50;;;11.38;100.00
54936;BME280;40838;50.676;7.838;2023-09-19T04:52:41;97898.69;;;11.32;100.00
54936;BME280;40838;50.676;7.838;2023-09-19T04:55:10;97891.03;;;11.26;100.00
54936;BME280;40838;50.676;7.838;2023-09-19T04:57:39;97892.84;;;11.30;100.00
54936;BME280;40838;50.676;7.838;2023-09-19T05:00:06;97893.41;;;11.37;100.00
54936;BME280;40838;50.676;7.838;2023-09-19T05:02:38;97885.16;;;11.39;100.00
54936;BME280;40838;50.676;7.838;2023-09-19T05:05:05;97888.88;;;11.38;100.00
54936;BME280;40838;50.676;7.838;2023-09-19T05:07:33;97898.41;;;11.44;100.00
54936;BME280;40838;50.676;7.838;2023-09-19T05:10:01;97894.72;;;11.30;100.00
54936;BME280;40838;50.676;7.838;2023-09-19T05:12:31;97892.06;;;11.35;100.00
54936;BME280;40838;50.676;7.838;2023-09-19T05:14:58;97902.13;;;11.28;100.00
54936;BME280;40838;50.676;7.838;2023-09-19T05:17:24;97893.88;;;11.24;100.00
54936;BME280;40838;50.676;7.838;2023-09-19T05:19:51;97904.47;;;11.19;100.00
54936;BME280;40838;50.676;7.838;2023-09-19T05:22:18;97904.50;;;11.14;100.00
54936;BME280;40838;50.676;7.838;2023-09-19T05:24:45;97910.31;;;11.16;100.00
54936;BME280;40838;50.676;7.838;2023-09-19T05:27:14;97911.38;;;11.20;100.00
54936;BME280;40838;50.676;7.838;2023-09-19T05:29:44;97911.09;;;11.22;100.00
54936;BME280;40838;50.676;7.838;2023-09-19T05:32:11;97902.13;;;11.28;100.00
54936;BME280;40838;50.676;7.838;2023-09-19T05:34:38;97910.06;;;11.23;100.00
54936;BME280;40838;50.676;7.838;2023-09-19T05:37:05;97908.22;;;11.33;100.00
54936;BME280;40838;50.676;7.838;2023-09-19T05:39:32;97909.00;;;11.39;100.00
54936;BME280;40838;50.676;7.838;2023-09-19T05:41:59;97905.03;;;11.42;100.00
54936;BME280;40838;50.676;7.838;2023-09-19T05:44:27;97909.31;;;11.43;100.00
54936;BME280;40838;50.676;7.838;2023-09-19T05:46:54;97915.13;;;11.55;100.00
54936;BME280;40838;50.676;7.838;2023-09-19T05:49:22;97909.00;;;11.75;100.00
54936;BME280;40838;50.676;7.838;2023-09-19T05:51:50;97916.63;;;11.92;100.00
54936;BME280;40838;50.676;7.838;2023-09-19T05:54:19;97925.63;;;12.01;100.00
54936;BME280;40838;50.676;7.838;2023-09-19T05:56:46;97940.25;;;11.93;100.00
54936;BME280;40838;50.676;7.838;2023-09-19T05:59:14;97936.75;;;12.13;100.00
54936;BME280;40838;50.676;7.838;2023-09-19T06:01:43;97950.03;;;12.03;100.00
54936;BME280;40838;50.676;7.838;2023-09-19T06:04:09;97951.06;;;12.17;100.00
54936;BME280;40838;50.676;7.838;2023-09-19T06:06:36;97955.03;;;12.15;100.00
54936;BME280;40838;50.676;7.838;2023-09-19T06:09:05;97953.16;;;12.31;100.00
54936;BME280;40838;50.676;7.838;2023-09-19T06:11:34;97960.03;;;12.37;100.00
54936;BME280;40838;50.676;7.838;2023-09-19T06:14:00;97958.19;;;12.27;100.00
54936;BME280;40838;50.676;7.838;2023-09-19T06:16:27;97958.72;;;12.29;100.00
54936;BME280;40838;50.676;7.838;2023-09-19T06:18:55;97964.22;;;12.48;100.00
54936;BME280;40838;50.676;7.838;2023-09-19T06:21:22;97972.97;;;12.48;100.00
54936;BME280;40838;50.676;7.838;2023-09-19T06:23:49;97974.78;;;12.68;100.00
54936;BME280;40838;50.676;7.838;2023-09-19T06:26:16;97982.47;;;12.65;100.00
54936;BME280;40838;50.676;7.838;2023-09-19T06:28:42;97985.94;;;12.65;100.00
54936;BME280;40838;50.676;7.838;2023-09-19T06:31:09;97983.88;;;12.57;100.00
54936;BME280;40838;50.676;7.838;2023-09-19T06:33:36;97994.94;;;12.74;100.00
54936;BME280;40838;50.676;7.838;2023-09-19T06:36:06;97995.44;;;12.77;100.00
54936;BME280;40838;50.676;7.838;2023-09-19T06:38:35;97998.03;;;12.92;100.00
54936;BME280;40838;50.676;7.838;2023-09-19T06:41:03;98005.84;;;12.68;100.00
54936;BME280;40838;50.676;7.838;2023-09-19T06:43:32;98003.34;;;12.92;100.00
54936;BME280;40838;50.676;7.838;2023-09-19T06:45:59;98005.47;;;12.95;100.00
54936;BME280;40838;50.676;7.838;2023-09-19T06:48:26;98002.47;;;13.07;100.00
54936;BME280;40838;50.676;7.838;2023-09-19T06:50:54;97996.56;;;13.15;100.00
54936;BME280;40838;50.676;7.838;2023-09-19T06:53:23;98015.50;;;13.03;100.00
54936;BME280;40838;50.676;7.838;2023-09-19T06:55:50;98020.97;;;13.22;100.00
54936;BME280;40838;50.676;7.838;2023-09-19T06:58:16;98021.44;;;13.34;100.00
54936;BME280;40838;50.676;7.838;2023-09-19T07:00:43;98024.38;;;13.33;100.00
54936;BME280;40838;50.676;7.838;2023-09-19T07:03:10;98025.97;;;13.34;100.00
54936;BME280;40838;50.676;7.838;2023-09-19T07:05:38;98027.94;;;13.57;100.00
54936;BME280;40838;50.676;7.838;2023-09-19T07:08:06;98031.16;;;13.10;100.00
54936;BME280;40838;50.676;7.838;2023-09-19T07:10:34;98038.13;;;13.45;100.00
54936;BME280;40838;50.676;7.838;2023-09-19T07:13:03;98036.91;;;13.27;100.00
54936;BME280;40838;50.676;7.838;2023-09-19T07:15:33;98041.25;;;13.52;100.00
54936;BME280;40838;50.676;7.838;2023-09-19T07:18:01;98043.28;;;13.65;100.00
54936;BME280;40838;50.676;7.838;2023-09-19T07:20:27;98044.16;;;13.95;100.00
54936;BME280;40838;50.676;7.838;2023-09-19T07:22:57;98046.84;;;13.90;100.00
54936;BME280;40838;50.676;7.838;2023-09-19T07:25:25;98052.84;;;13.72;100.00
54936;BME280;40838;50.676;7.838;2023-09-19T07:27:54;98043.66;;;14.17;100.00
54936;BME280;40838;50.676;7.838;2023-09-19T07:30:21;98037.41;;;14.32;100.00
54936;BME280;40838;50.676;7.838;2023-09-19T07:32:48;98044.22;;;14.14;100.00
54936;BME280;40838;50.676;7.838;2023-09-19T07:35:15;98045.91;;;14.05;100.00
54936;BME280;40838;50.676;7.838;2023-09-19T07:37:42;98044.50;;;14.18;100.00
54936;BME280;40838;50.676;7.838;2023-09-19T07:40:10;98041.78;;;14.47;100.00
54936;BME280;40838;50.676;7.838;2023-09-19T07:42:37;98047.44;;;14.40;100.00
54936;BME280;40838;50.676;7.838;2023-09-19T07:45:08;98047.88;;;14.76;100.00
54936;BME280;40838;50.676;7.838;2023-09-19T07:47:35;98042.53;;;15.19;100.00
54936;BME280;40838;50.676;7.838;2023-09-19T07:50:02;98050.63;;;14.66;100.00
54936;BME280;40838;50.676;7.838;2023-09-19T07:52:28;98043.47;;;15.48;100.00
54936;BME280;40838;50.676;7.838;2023-09-19T07:54:55;98051.41;;;15.15;100.00
54936;BME280;40838;50.676;7.838;2023-09-19T07:57:23;98049.84;;;14.42;100.00
54936;BME280;40838;50.676;7.838;2023-09-19T07:59:50;98039.91;;;14.71;100.00
54936;BME280;40838;50.676;7.838;2023-09-19T08:02:18;98052.31;;;15.05;100.00
54936;BME280;40838;50.676;7.838;2023-09-19T08:04:45;98046.38;;;15.32;100.00
54936;BME280;40838;50.676;7.838;2023-09-19T08:07:12;98042.41;;;14.63;100.00
54936;BME280;40838;50.676;7.838;2023-09-19T08:09:39;98050.13;;;14.88;100.00
54936;BME280;40838;50.676;7.838;2023-09-19T08:12:07;98055.06;;;15.19;100.00
54936;BME280;40838;50.676;7.838;2023-09-19T08:14:36;98050.56;;;14.95;100.00
54936;BME280;40838;50.676;7.838;2023-09-19T08:17:03;98058.72;;;15.04;100.00
54936;BME280;40838;50.676;7.838;2023-09-19T08:19:32;98059.47;;;14.62;100.00
54936;BME280;40838;50.676;7.838;2023-09-19T08:21:59;98061.13;;;14.28;100.00
54936;BME280;40838;50.676;7.838;2023-09-19T08:24:26;98059.28;;;14.82;100.00
54936;BME280;40838;50.676;7.838;2023-09-19T08:26:54;98060.91;;;15.59;100.00
54936;BME280;40838;50.676;7.838;2023-09-19T08:29:21;98067.34;;;15.39;100.00
54936;BME280;40838;50.676;7.838;2023-09-19T08:31:54;98074.81;;;15.56;100.00
54936;BME280;40838;50.676;7.838;2023-09-19T08:34:21;98073.38;;;14.59;100.00
54936;BME280;40838;50.676;7.838;2023-09-19T08:36:50;98074.06;;;14.40;100.00
54936;BME280;40838;50.676;7.838;2023-09-19T08:39:18;98070.88;;;14.91;100.00
54936;BME280;40838;50.676;7.838;2023-09-19T08:41:45;98060.38;;;15.95;100.00
54936;BME280;40838;50.676;7.838;2023-09-19T08:44:11;98071.06;;;15.57;100.00
54936;BME280;40838;50.676;7.838;2023-09-19T08:46:40;98073.03;;;15.70;100.00
54936;BME280;40838;50.676;7.838;2023-09-19T08:49:13;98069.84;;;15.30;100.00
54936;BME280;40838;50.676;7.838;2023-09-19T08:51:45;98066.41;;;16.33;100.00
54936;BME280;40838;50.676;7.838;2023-09-19T08:54:21;98069.03;;;16.19;100.00
54936;BME280;40838;50.676;7.838;2023-09-19T08:56:50;98071.03;;;16.13;100.00
54936;BME280;40838;50.676;7.838;2023-09-19T08:59:21;98081.56;;;16.38;100.00
54936;BME280;40838;50.676;7.838;2023-09-19T09:01:50;98079.41;;;15.69;100.00
54936;BME280;40838;50.676;7.838;2023-09-19T09:04:19;98080.13;;;16.26;100.00
54936;BME280;40838;50.676;7.838;2023-09-19T09:06:46;98087.94;;;15.90;100.00
54936;BME280;40838;50.676;7.838;2023-09-19T09:09:21;98078.72;;;16.15;100.00
54936;BME280;40838;50.676;7.838;2023-09-19T09:11:49;98091.72;;;16.96;100.00
54936;BME280;40838;50.676;7.838;2023-09-19T09:14:18;98107.06;;;15.97;100.00
54936;BME280;40838;50.676;7.838;2023-09-19T09:16:46;98098.84;;;16.26;100.00
54936;BME280;40838;50.676;7.838;2023-09-19T09:19:14;98087.09;;;16.41;100.00
54936;BME280;40838;50.676;7.838;2023-09-19T09:21:46;98096.78;;;14.03;100.00
54936;BME280;40838;50.676;7.838;2023-09-19T09:24:50;98093.44;;;16.12;100.00
54936;BME280;40838;50.676;7.838;2023-09-19T09:27:19;98099.03;;;16.30;100.00
54936;BME280;40838;50.676;7.838;2023-09-19T09:29:50;98102.06;;;15.72;100.00
54936;BME280;40838;50.676;7.838;2023-09-19T09:32:19;98104.00;;;16.04;100.00
54936;BME280;40838;50.676;7.838;2023-09-19T09:34:49;98094.69;;;16.01;100.00
54936;BME280;40838;50.676;7.838;2023-09-19T09:37:16;98085.41;;;15.42;100.00
54936;BME280;40838;50.676;7.838;2023-09-19T09:39:53;98088.78;;;16.04;100.00
54936;BME280;40838;50.676;7.838;2023-09-19T09:42:32;98090.97;;;16.16;100.00
54936;BME280;40838;50.676;7.838;2023-09-19T09:45:17;98095.09;;;16.41;100.00
54936;BME280;40838;50.676;7.838;2023-09-19T09:47:46;98092.41;;;15.57;100.00
54936;BME280;40838;50.676;7.838;2023-09-19T09:50:29;98091.34;;;18.20;100.00
54936;BME280;40838;50.676;7.838;2023-09-19T09:53:19;98104.06;;;17.56;100.00
54936;BME280;40838;50.676;7.838;2023-09-19T09:56:06;98094.09;;;16.23;100.00
54936;BME280;40838;50.676;7.838;2023-09-19T09:58:34;98089.81;;;17.60;100.00
54936;BME280;40838;50.676;7.838;2023-09-19T10:01:02;98107.81;;;17.18;100.00
54936;BME280;40838;50.676;7.838;2023-09-19T10:03:36;98090.09;;;15.69;100.00
54936;BME280;40838;50.676;7.838;2023-09-19T10:06:06;98095.97;;;16.36;100.00
54936;BME280;40838;50.676;7.838;2023-09-19T10:09:00;98093.78;;;15.35;100.00
54936;BME280;40838;50.676;7.838;2023-09-19T10:11:44;98087.81;;;15.00;100.00
54936;BME280;40838;50.676;7.838;2023-09-19T10:14:12;98086.81;;;16.10;100.00
54936;BME280;40838;50.676;7.838;2023-09-19T10:16:41;98085.47;;;16.26;100.00
54936;BME280;40838;50.676;7.838;2023-09-19T10:19:15;98093.03;;;16.05;100.00
54936;BME280;40838;50.676;7.838;2023-09-19T10:21:43;98086.13;;;16.92;100.00
54936;BME280;40838;50.676;7.838;2023-09-19T10:24:11;98079.22;;;17.19;100.00
54936;BME280;40838;50.676;7.838;2023-09-19T10:26:41;98083.78;;;16.30;100.00
54936;BME280;40838;50.676;7.838;2023-09-19T10:29:10;98065.88;;;15.65;100.00
54936;BME280;40838;50.676;7.838;2023-09-19T10:31:41;98082.22;;;16.29;100.00
54936;BME280;40838;50.676;7.838;2023-09-19T10:34:14;98072.56;;;17.16;100.00
54936;BME280;40838;50.676;7.838;2023-09-19T10:36:46;98066.94;;;16.49;100.00
54936;BME280;40838;50.676;7.838;2023-09-19T10:39:15;98064.06;;;17.00;100.00
54936;BME280;40838;50.676;7.838;2023-09-19T10:41:50;98059.25;;;16.75;100.00
54936;BME280;40838;50.676;7.838;2023-09-19T10:44:26;98063.00;;;16.74;100.00
54936;BME280;40838;50.676;7.838;2023-09-19T10:47:01;98076.22;;;17.20;100.00
54936;BME280;40838;50.676;7.838;2023-09-19T10:49:31;98069.28;;;16.50;100.00
54936;BME280;40838;50.676;7.838;2023-09-19T10:52:05;98062.28;;;16.54;100.00
54936;BME280;40838;50.676;7.838;2023-09-19T10:54:34;98066.28;;;17.71;100.00
54936;BME280;40838;50.676;7.838;2023-09-19T10:57:03;98060.25;;;16.32;100.00
54936;BME280;40838;50.676;7.838;2023-09-19T10:59:32;98074.31;;;17.35;100.00
54936;BME280;40838;50.676;7.838;2023-09-19T11:02:16;98071.31;;;17.36;100.00
54936;BME280;40838;50.676;7.838;2023-09-19T11:04:43;98075.13;;;16.52;100.00
54936;BME280;40838;50.676;7.838;2023-09-19T11:07:16;98075.16;;;16.06;100.00
54936;BME280;40838;50.676;7.838;2023-09-19T11:09:44;98087.31;;;16.12;100.00
54936;BME280;40838;50.676;7.838;2023-09-19T11:12:11;98091.69;;;16.22;100.00
54936;BME280;40838;50.676;7.838;2023-09-19T11:14:41;98078.63;;;17.08;100.00
54936;BME280;40838;50.676;7.838;2023-09-19T11:17:40;98089.25;;;16.25;100.00
54936;BME280;40838;50.676;7.838;2023-09-19T11:20:24;98080.69;;;16.70;100.00
54936;BME280;40838;50.676;7.838;2023-09-19T11:23:21;98075.59;;;15.94;100.00
54936;BME280;40838;50.676;7.838;2023-09-19T11:25:49;98068.25;;;16.93;100.00
54936;BME280;40838;50.676;7.838;2023-09-19T11:28:30;98075.44;;;17.06;100.00
54936;BME280;40838;50.676;7.838;2023-09-19T11:30:59;98063.91;;;16.36;100.00
54936;BME280;40838;50.676;7.838;2023-09-19T11:33:25;98069.28;;;16.04;100.00
54936;BME280;40838;50.676;7.838;2023-09-19T11:36:03;98062.91;;;16.19;100.00
54936;BME280;40838;50.676;7.838;2023-09-19T11:38:59;98059.13;;;17.08;100.00
54936;BME280;40838;50.676;7.838;2023-09-19T11:41:37;98064.78;;;16.78;100.00
54936;BME280;40838;50.676;7.838;2023-09-19T11:44:35;98076.63;;;17.28;100.00
54936;BME280;40838;50.676;7.838;2023-09-19T11:47:06;98065.38;;;16.15;100.00
54936;BME280;40838;50.676;7.838;2023-09-19T11:49:35;98070.69;;;16.62;100.00
54936;BME280;40838;50.676;7.838;2023-09-19T11:52:06;98060.56;;;16.45;100.00
54936;BME280;40838;50.676;7.838;2023-09-19T11:54:35;98066.88;;;16.21;100.00
54936;BME280;40838;50.676;7.838;2023-09-19T11:57:05;98067.41;;;16.04;100.00
54936;BME280;40838;50.676;7.838;2023-09-19T11:59:32;98052.66;;;15.74;100.00
54936;BME280;40838;50.676;7.838;2023-09-19T12:02:04;98048.81;;;16.46;100.00
54936;BME280;40838;50.676;7.838;2023-09-19T12:04:39;98058.53;;;16.09;100.00
54936;BME280;40838;50.676;7.838;2023-09-19T12:07:12;98067.84;;;17.36;100.00
54936;BME280;40838;50.676;7.838;2023-09-19T12:09:44;98066.28;;;17.35;100.00
54936;BME280;40838;50.676;7.838;2023-09-19T12:12:19;98076.47;;;17.46;100.00
54936;BME280;40838;50.676;7.838;2023-09-19T12:14:48;98058.63;;;16.64;100.00
54936;BME280;40838;50.676;7.838;2023-09-19T12:17:14;98076.66;;;17.36;100.00
54936;BME280;40838;50.676;7.838;2023-09-19T12:19:51;98072.53;;;17.30;100.00
54936;BME280;40838;50.676;7.838;2023-09-19T12:22:18;98069.47;;;17.59;100.00
54936;BME280;40838;50.676;7.838;2023-09-19T12:24:46;98074.13;;;17.67;100.00
54936;BME280;40838;50.676;7.838;2023-09-19T12:27:16;98073.09;;;17.41;100.00
54936;BME280;40838;50.676;7.838;2023-09-19T12:29:44;98078.09;;;17.20;100.00
54936;BME280;40838;50.676;7.838;2023-09-19T12:32:11;98071.38;;;17.22;100.00
54936;BME280;40838;50.676;7.838;2023-09-19T12:34:40;98078.34;;;16.96;100.00
54936;BME280;40838;50.676;7.838;2023-09-19T12:37:13;98083.09;;;16.99;100.00
54936;BME280;40838;50.676;7.838;2023-09-19T12:39:46;98077.19;;;17.75;100.00
54936;BME280;40838;50.676;7.838;2023-09-19T12:42:17;98074.97;;;16.90;100.00
54936;BME280;40838;50.676;7.838;2023-09-19T12:44:46;98068.72;;;17.45;100.00
54936;BME280;40838;50.676;7.838;2023-09-19T12:47:20;98074.81;;;17.96;100.00
54936;BME280;40838;50.676;7.838;2023-09-19T12:50:08;98056.75;;;18.01;100.00
54936;BME280;40838;50.676;7.838;2023-09-19T12:52:45;98062.28;;;17.46;100.00
54936;BME280;40838;50.676;7.838;2023-09-19T12:55:21;98032.84;;;17.10;100.00
54936;BME280;40838;50.676;7.838;2023-09-19T12:57:58;98057.22;;;17.44;100.00
54936;BME280;40838;50.676;7.838;2023-09-19T13:00:32;98059.56;;;17.23;100.00
54936;BME280;40838;50.676;7.838;2023-09-19T13:03:16;98056.56;;;16.75;100.00
54936;BME280;40838;50.676;7.838;2023-09-19T13:05:49;98046.03;;;17.06;100.00